sensor_id;sensor_type;location;lat;lon;timestamp;pressure;altitude;pressure_sealevel;temperature;humidity
54870;BME280;40756;-37.950;145.008;2022-12-10T00:01:50;101344.64;;;17.98;36.49
54870;BME280;40756;-37.950;145.008;2022-12-10T00:04:20;101340.64;;;18.44;36.32
54870;BME280;40756;-37.950;145.008;2022-12-10T00:06:50;101339.98;;;18.48;35.47
54870;BME280;40756;-37.950;145.008;2022-12-10T00:09:20;101336.55;;;18.76;35.93
54870;BME280;40756;-37.950;145.008;2022-12-10T00:11:50;101343.28;;;18.19;36.63
54870;BME280;40756;-37.950;145.008;2022-12-10T00:14:19;101339.94;;;17.46;37.16
54870;BME280;40756;-37.950;145.008;2022-12-10T00:16:49;101335.70;;;17.96;35.90
54870;BME280;40756;-37.950;145.008;2022-12-10T00:19:18;101334.50;;;17.83;36.82
54870;BME280;40756;-37.950;145.008;2022-12-10T00:21:48;101331.57;;;17.77;36.36
54870;BME280;40756;-37.950;145.008;2022-12-10T00:24:18;101328.59;;;18.34;36.59
54870;BME280;40756;-37.950;145.008;2022-12-10T00:26:47;101324.94;;;18.32;36.18
54870;BME280;40756;-37.950;145.008;2022-12-10T00:29:17;101323.38;;;18.66;36.38
54870;BME280;40756;-37.950;145.008;2022-12-10T00:31:47;101316.85;;;18.39;36.99
54870;BME280;40756;-37.950;145.008;2022-12-10T00:34:16;101317.98;;;18.60;36.89
54870;BME280;40756;-37.950;145.008;2022-12-10T00:36:48;101317.90;;;19.07;36.21
54870;BME280;40756;-37.950;145.008;2022-12-10T00:39:19;101314.44;;;19.22;35.50
54870;BME280;40756;-37.950;145.008;2022-12-10T00:41:49;101309.78;;;18.98;34.43
54870;BME280;40756;-37.950;145.008;2022-12-10T00:44:18;101300.96;;;18.92;34.85
54870;BME280;40756;-37.950;145.008;2022-12-10T00:46:48;101295.74;;;18.84;35.58
54870;BME280;40756;-37.950;145.008;2022-12-10T00:49:17;101291.20;;;19.40;34.02
54870;BME280;40756;-37.950;145.008;2022-12-10T00:51:47;101281.54;;;19.88;32.97
54870;BME280;40756;-37.950;145.008;2022-12-10T00:54:17;101277.66;;;20.02;33.96
54870;BME280;40756;-37.950;145.008;2022-12-10T00:56:46;101274.95;;;20.53;31.98
54870;BME280;40756;-37.950;145.008;2022-12-10T00:59:15;101269.26;;;20.36;30.54
54870;BME280;40756;-37.950;145.008;2022-12-10T01:01:45;101261.89;;;21.03;29.74
54870;BME280;40756;-37.950;145.008;2022-12-10T01:04:17;101258.59;;;20.84;30.45
54870;BME280;40756;-37.950;145.008;2022-12-10T01:06:48;101257.13;;;20.83;32.44
54870;BME280;40756;-37.950;145.008;2022-12-10T01:09:20;101254.79;;;20.07;33.40
54870;BME280;40756;-37.950;145.008;2022-12-10T01:11:51;101251.75;;;21.29;31.28
54870;BME280;40756;-37.950;145.008;2022-12-10T01:14:23;101246.53;;;21.47;31.44
54870;BME280;40756;-37.950;145.008;2022-12-10T01:16:56;101241.40;;;20.85;31.82
54870;BME280;40756;-37.950;145.008;2022-12-10T01:19:26;101240.40;;;21.06;31.80
54870;BME280;40756;-37.950;145.008;2022-12-10T01:21:57;101236.72;;;21.78;31.38
54870;BME280;40756;-37.950;145.008;2022-12-10T01:24:28;101231.43;;;21.51;30.01
54870;BME280;40756;-37.950;145.008;2022-12-10T01:26:58;101226.16;;;22.04;30.31
54870;BME280;40756;-37.950;145.008;2022-12-10T01:29:28;101217.90;;;22.23;29.00
54870;BME280;40756;-37.950;145.008;2022-12-10T01:31:58;101214.60;;;21.99;28.85
54870;BME280;40756;-37.950;145.008;2022-12-10T01:34:28;101212.75;;;21.97;30.08
54870;BME280;40756;-37.950;145.008;2022-12-10T01:36:58;101204.22;;;21.83;30.44
54870;BME280;40756;-37.950;145.008;2022-12-10T01:39:28;101195.42;;;22.63;31.02
54870;BME280;40756;-37.950;145.008;2022-12-10T01:41:59;101187.07;;;22.91;30.57
54870;BME280;40756;-37.950;145.008;2022-12-10T01:45:07;101183.98;;;21.58;30.41
54870;BME280;40756;-37.950;145.008;2022-12-10T01:47:38;101175.23;;;21.77;30.84
54870;BME280;40756;-37.950;145.008;2022-12-10T01:50:09;101172.72;;;22.15;30.45
54870;BME280;40756;-37.950;145.008;2022-12-10T01:52:39;101165.11;;;22.33;30.03
54870;BME280;40756;-37.950;145.008;2022-12-10T01:55:40;101159.24;;;22.48;29.98
54870;BME280;40756;-37.950;145.008;2022-12-10T01:58:11;101154.31;;;22.13;31.19
54870;BME280;40756;-37.950;145.008;2022-12-10T02:00:51;101152.39;;;23.08;30.32
54870;BME280;40756;-37.950;145.008;2022-12-10T02:03:38;101144.70;;;23.06;29.52
54870;BME280;40756;-37.950;145.008;2022-12-10T02:06:22;101143.63;;;23.83;30.03
54870;BME280;40756;-37.950;145.008;2022-12-10T02:09:04;101143.56;;;22.88;30.11
54870;BME280;40756;-37.950;145.008;2022-12-10T02:11:44;101142.36;;;22.82;30.02
54870;BME280;40756;-37.950;145.008;2022-12-10T02:14:21;101146.19;;;22.69;30.41
54870;BME280;40756;-37.950;145.008;2022-12-10T02:16:58;101138.97;;;23.79;28.85
54870;BME280;40756;-37.950;145.008;2022-12-10T02:19:42;101139.16;;;23.21;29.46
54870;BME280;40756;-37.950;145.008;2022-12-10T02:22:17;101134.70;;;24.04;29.49
54870;BME280;40756;-37.950;145.008;2022-12-10T02:24:48;101137.76;;;23.73;30.56
54870;BME280;40756;-37.950;145.008;2022-12-10T02:27:25;101128.07;;;23.05;30.28
54870;BME280;40756;-37.950;145.008;2022-12-10T02:29:57;101123.57;;;23.35;29.91
54870;BME280;40756;-37.950;145.008;2022-12-10T02:32:29;101121.55;;;23.98;30.11
54870;BME280;40756;-37.950;145.008;2022-12-10T02:35:05;101122.03;;;24.25;29.13
54870;BME280;40756;-37.950;145.008;2022-12-10T02:37:40;101121.30;;;23.69;29.90
54870;BME280;40756;-37.950;145.008;2022-12-10T02:40:18;101118.46;;;23.89;28.31
54870;BME280;40756;-37.950;145.008;2022-12-10T02:42:50;101115.47;;;24.78;28.78
54870;BME280;40756;-37.950;145.008;2022-12-10T02:45:23;101116.08;;;24.60;28.21
54870;BME280;40756;-37.950;145.008;2022-12-10T02:47:57;101110.53;;;24.27;26.57
54870;BME280;40756;-37.950;145.008;2022-12-10T02:50:27;101104.20;;;24.42;28.04
54870;BME280;40756;-37.950;145.008;2022-12-10T02:52:57;101104.49;;;24.86;29.12
54870;BME280;40756;-37.950;145.008;2022-12-10T02:55:26;101095.12;;;25.71;27.80
54870;BME280;40756;-37.950;145.008;2022-12-10T02:58:05;101096.65;;;25.19;27.28
54870;BME280;40756;-37.950;145.008;2022-12-10T03:00:41;101094.81;;;25.81;27.26
54870;BME280;40756;-37.950;145.008;2022-12-10T03:03:23;101092.75;;;25.83;26.01
54870;BME280;40756;-37.950;145.008;2022-12-10T03:06:00;101088.81;;;25.57;25.19
54870;BME280;40756;-37.950;145.008;2022-12-10T03:08:38;101085.29;;;26.18;26.44
54870;BME280;40756;-37.950;145.008;2022-12-10T03:11:13;101078.72;;;26.46;25.06
54870;BME280;40756;-37.950;145.008;2022-12-10T03:13:49;101068.82;;;26.48;25.26
54870;BME280;40756;-37.950;145.008;2022-12-10T03:16:21;101062.03;;;26.38;24.63
54870;BME280;40756;-37.950;145.008;2022-12-10T03:18:55;101061.25;;;25.90;24.52
54870;BME280;40756;-37.950;145.008;2022-12-10T03:21:27;101053.40;;;26.28;23.93
54870;BME280;40756;-37.950;145.008;2022-12-10T03:23:57;101046.91;;;27.02;24.46
54870;BME280;40756;-37.950;145.008;2022-12-10T03:26:27;101038.04;;;26.78;24.91
54870;BME280;40756;-37.950;145.008;2022-12-10T03:29:02;101029.64;;;26.38;24.69
54870;BME280;40756;-37.950;145.008;2022-12-10T03:31:35;101023.00;;;26.42;24.77
54870;BME280;40756;-37.950;145.008;2022-12-10T03:34:07;101016.09;;;26.64;24.66
54870;BME280;40756;-37.950;145.008;2022-12-10T03:36:39;101001.77;;;26.99;24.34
54870;BME280;40756;-37.950;145.008;2022-12-10T03:39:10;100995.54;;;27.78;24.67
54870;BME280;40756;-37.950;145.008;2022-12-10T03:41:40;100990.00;;;27.44;23.84
54870;BME280;40756;-37.950;145.008;2022-12-10T03:44:09;100988.59;;;27.68;23.75
54870;BME280;40756;-37.950;145.008;2022-12-10T03:46:39;100983.38;;;28.06;24.01
54870;BME280;40756;-37.950;145.008;2022-12-10T03:49:09;100979.02;;;27.55;23.53
54870;BME280;40756;-37.950;145.008;2022-12-10T03:51:39;100978.55;;;28.29;23.85
54870;BME280;40756;-37.950;145.008;2022-12-10T03:54:08;100975.81;;;28.40;23.11
54870;BME280;40756;-37.950;145.008;2022-12-10T03:56:37;100974.12;;;28.01;23.69
54870;BME280;40756;-37.950;145.008;2022-12-10T03:59:07;100979.01;;;27.74;24.61
54870;BME280;40756;-37.950;145.008;2022-12-10T04:01:37;100971.68;;;27.82;25.04
54870;BME280;40756;-37.950;145.008;2022-12-10T04:04:07;100965.89;;;27.46;25.33
54870;BME280;40756;-37.950;145.008;2022-12-10T04:06:39;100966.03;;;27.80;23.89
54870;BME280;40756;-37.950;145.008;2022-12-10T04:09:11;100959.49;;;27.05;24.93
54870;BME280;40756;-37.950;145.008;2022-12-10T04:11:41;100953.75;;;26.58;24.41
54870;BME280;40756;-37.950;145.008;2022-12-10T04:14:12;100954.21;;;27.11;23.87
54870;BME280;40756;-37.950;145.008;2022-12-10T04:16:42;100953.11;;;27.47;23.16
54870;BME280;40756;-37.950;145.008;2022-12-10T04:19:13;100947.59;;;27.42;23.00
54870;BME280;40756;-37.950;145.008;2022-12-10T04:21:44;100940.90;;;26.99;23.11
54870;BME280;40756;-37.950;145.008;2022-12-10T04:24:14;100940.53;;;27.40;25.03
54870;BME280;40756;-37.950;145.008;2022-12-10T04:26:44;100941.21;;;27.60;24.57
54870;BME280;40756;-37.950;145.008;2022-12-10T04:29:13;100931.40;;;26.31;24.88
54870;BME280;40756;-37.950;145.008;2022-12-10T04:31:43;100925.68;;;27.22;25.04
54870;BME280;40756;-37.950;145.008;2022-12-10T04:34:12;100924.72;;;26.93;24.89
54870;BME280;40756;-37.950;145.008;2022-12-10T04:36:41;100924.15;;;27.09;24.75
54870;BME280;40756;-37.950;145.008;2022-12-10T04:39:12;100921.23;;;26.97;25.22
54870;BME280;40756;-37.950;145.008;2022-12-10T04:41:44;100911.65;;;27.02;24.90
54870;BME280;40756;-37.950;145.008;2022-12-10T04:44:13;100907.54;;;27.20;26.18
54870;BME280;40756;-37.950;145.008;2022-12-10T04:46:44;100907.09;;;27.32;25.24
54870;BME280;40756;-37.950;145.008;2022-12-10T04:49:14;100900.80;;;26.62;25.69
54870;BME280;40756;-37.950;145.008;2022-12-10T04:51:44;100896.57;;;26.56;25.60
54870;BME280;40756;-37.950;145.008;2022-12-10T04:54:13;100895.48;;;26.92;25.18
54870;BME280;40756;-37.950;145.008;2022-12-10T04:56:44;100896.80;;;26.89;25.77
54870;BME280;40756;-37.950;145.008;2022-12-10T04:59:14;100892.88;;;26.52;26.92
54870;BME280;40756;-37.950;145.008;2022-12-10T05:01:44;100889.98;;;26.95;25.75
54870;BME280;40756;-37.950;145.008;2022-12-10T05:04:15;100892.19;;;27.48;25.80
54870;BME280;40756;-37.950;145.008;2022-12-10T05:06:48;100886.80;;;27.41;24.40
54870;BME280;40756;-37.950;145.008;2022-12-10T05:09:18;100886.44;;;27.65;24.39
54870;BME280;40756;-37.950;145.008;2022-12-10T05:11:47;100878.60;;;27.27;24.25
54870;BME280;40756;-37.950;145.008;2022-12-10T05:14:16;100869.22;;;27.52;25.36
54870;BME280;40756;-37.950;145.008;2022-12-10T05:16:48;100863.07;;;27.36;24.95
54870;BME280;40756;-37.950;145.008;2022-12-10T05:19:18;100861.82;;;27.76;24.85
54870;BME280;40756;-37.950;145.008;2022-12-10T05:21:47;100857.40;;;27.18;24.54
54870;BME280;40756;-37.950;145.008;2022-12-10T05:24:18;100854.06;;;27.13;24.10
54870;BME280;40756;-37.950;145.008;2022-12-10T05:26:47;100845.11;;;27.43;23.61
54870;BME280;40756;-37.950;145.008;2022-12-10T05:29:17;100843.19;;;27.11;24.17
54870;BME280;40756;-37.950;145.008;2022-12-10T05:31:47;100841.07;;;27.90;24.60
54870;BME280;40756;-37.950;145.008;2022-12-10T05:34:16;100833.07;;;27.94;24.82
54870;BME280;40756;-37.950;145.008;2022-12-10T05:36:46;100835.38;;;28.35;23.60
54870;BME280;40756;-37.950;145.008;2022-12-10T05:39:16;100830.22;;;28.09;23.12
54870;BME280;40756;-37.950;145.008;2022-12-10T05:41:45;100826.86;;;28.17;23.46
54870;BME280;40756;-37.950;145.008;2022-12-10T05:44:15;100817.48;;;27.90;22.94
54870;BME280;40756;-37.950;145.008;2022-12-10T05:46:44;100814.67;;;27.68;24.07
54870;BME280;40756;-37.950;145.008;2022-12-10T05:49:13;100811.71;;;27.65;23.55
54870;BME280;40756;-37.950;145.008;2022-12-10T05:51:43;100812.60;;;28.04;23.44
54870;BME280;40756;-37.950;145.008;2022-12-10T05:54:13;100807.09;;;28.44;24.17
54870;BME280;40756;-37.950;145.008;2022-12-10T05:56:42;100802.92;;;28.27;23.67
54870;BME280;40756;-37.950;145.008;2022-12-10T05:59:12;100797.23;;;28.19;24.22
54870;BME280;40756;-37.950;145.008;2022-12-10T06:01:41;100793.28;;;28.14;22.25
54870;BME280;40756;-37.950;145.008;2022-12-10T06:04:11;100786.12;;;27.87;22.81
54870;BME280;40756;-37.950;145.008;2022-12-10T06:06:41;100786.46;;;27.56;22.12
54870;BME280;40756;-37.950;145.008;2022-12-10T06:09:13;100783.11;;;28.04;22.51
54870;BME280;40756;-37.950;145.008;2022-12-10T06:11:43;100780.43;;;27.30;21.45
54870;BME280;40756;-37.950;145.008;2022-12-10T06:14:12;100777.17;;;27.09;22.57
54870;BME280;40756;-37.950;145.008;2022-12-10T06:16:41;100774.07;;;27.59;22.11
54870;BME280;40756;-37.950;145.008;2022-12-10T06:19:11;100769.48;;;27.76;22.02
54870;BME280;40756;-37.950;145.008;2022-12-10T06:21:40;100766.81;;;28.09;21.25
54870;BME280;40756;-37.950;145.008;2022-12-10T06:24:09;100767.30;;;28.12;20.77
54870;BME280;40756;-37.950;145.008;2022-12-10T06:26:39;100767.86;;;28.16;20.38
54870;BME280;40756;-37.950;145.008;2022-12-10T06:29:09;100771.23;;;28.26;20.81
54870;BME280;40756;-37.950;145.008;2022-12-10T06:31:38;100773.33;;;28.39;21.78
54870;BME280;40756;-37.950;145.008;2022-12-10T06:34:07;100771.80;;;28.66;21.91
54870;BME280;40756;-37.950;145.008;2022-12-10T06:36:37;100773.43;;;28.73;22.35
54870;BME280;40756;-37.950;145.008;2022-12-10T06:39:06;100775.33;;;28.38;21.70
54870;BME280;40756;-37.950;145.008;2022-12-10T06:41:36;100777.31;;;27.87;21.17
54870;BME280;40756;-37.950;145.008;2022-12-10T06:44:09;100780.17;;;28.30;21.52
54870;BME280;40756;-37.950;145.008;2022-12-10T06:46:39;100782.54;;;28.62;21.97
54870;BME280;40756;-37.950;145.008;2022-12-10T06:49:09;100782.13;;;27.93;23.04
54870;BME280;40756;-37.950;145.008;2022-12-10T06:51:39;100786.61;;;28.08;23.00
54870;BME280;40756;-37.950;145.008;2022-12-10T06:54:08;100788.40;;;28.01;23.09
54870;BME280;40756;-37.950;145.008;2022-12-10T06:56:37;100788.96;;;28.21;22.19
54870;BME280;40756;-37.950;145.008;2022-12-10T06:59:07;100791.74;;;28.43;22.11
54870;BME280;40756;-37.950;145.008;2022-12-10T07:01:38;100793.39;;;27.91;22.19
54870;BME280;40756;-37.950;145.008;2022-12-10T07:04:09;100800.16;;;27.79;22.32
54870;BME280;40756;-37.950;145.008;2022-12-10T07:06:39;100803.40;;;27.82;23.25
54870;BME280;40756;-37.950;145.008;2022-12-10T07:09:08;100803.94;;;27.26;22.82
54870;BME280;40756;-37.950;145.008;2022-12-10T07:11:38;100798.77;;;26.97;22.89
54870;BME280;40756;-37.950;145.008;2022-12-10T07:14:08;100798.98;;;27.35;22.98
54870;BME280;40756;-37.950;145.008;2022-12-10T07:16:39;100791.38;;;27.04;23.02
54870;BME280;40756;-37.950;145.008;2022-12-10T07:19:11;100793.70;;;27.32;23.09
54870;BME280;40756;-37.950;145.008;2022-12-10T07:21:42;100789.59;;;27.52;23.74
54870;BME280;40756;-37.950;145.008;2022-12-10T07:24:14;100789.03;;;27.73;22.60
54870;BME280;40756;-37.950;145.008;2022-12-10T07:26:45;100787.19;;;27.29;21.58
54870;BME280;40756;-37.950;145.008;2022-12-10T07:29:17;100782.97;;;27.88;20.84
54870;BME280;40756;-37.950;145.008;2022-12-10T07:31:49;100781.09;;;27.63;21.58
54870;BME280;40756;-37.950;145.008;2022-12-10T07:34:18;100782.46;;;27.70;21.08
54870;BME280;40756;-37.950;145.008;2022-12-10T07:36:47;100784.33;;;27.85;21.12
54870;BME280;40756;-37.950;145.008;2022-12-10T07:39:17;100781.46;;;27.67;21.23
54870;BME280;40756;-37.950;145.008;2022-12-10T07:41:49;100778.94;;;27.74;21.59
54870;BME280;40756;-37.950;145.008;2022-12-10T07:44:19;100776.94;;;27.98;22.42
54870;BME280;40756;-37.950;145.008;2022-12-10T07:46:50;100787.37;;;26.97;22.69
54870;BME280;40756;-37.950;145.008;2022-12-10T07:49:20;100791.77;;;26.12;23.76
54870;BME280;40756;-37.950;145.008;2022-12-10T07:51:51;100793.07;;;25.86;23.63
54870;BME280;40756;-37.950;145.008;2022-12-10T07:54:20;100791.98;;;26.13;24.00
54870;BME280;40756;-37.950;145.008;2022-12-10T07:56:50;100793.04;;;26.22;24.60
54870;BME280;40756;-37.950;145.008;2022-12-10T07:59:19;100793.02;;;25.58;25.01
54870;BME280;40756;-37.950;145.008;2022-12-10T08:01:48;100789.42;;;25.60;25.53
54870;BME280;40756;-37.950;145.008;2022-12-10T08:04:18;100786.25;;;25.57;25.95
54870;BME280;40756;-37.950;145.008;2022-12-10T08:06:47;100785.33;;;25.64;25.88
54870;BME280;40756;-37.950;145.008;2022-12-10T08:09:17;100781.50;;;25.48;26.87
54870;BME280;40756;-37.950;145.008;2022-12-10T08:11:46;100784.50;;;25.64;27.04
54870;BME280;40756;-37.950;145.008;2022-12-10T08:14:16;100780.24;;;24.92;27.32
54870;BME280;40756;-37.950;145.008;2022-12-10T08:16:45;100784.43;;;25.05;27.62
54870;BME280;40756;-37.950;145.008;2022-12-10T08:19:14;100782.65;;;25.34;27.84
54870;BME280;40756;-37.950;145.008;2022-12-10T08:21:44;100778.03;;;25.44;27.27
54870;BME280;40756;-37.950;145.008;2022-12-10T08:24:14;100773.80;;;25.44;27.58
54870;BME280;40756;-37.950;145.008;2022-12-10T08:26:44;100769.81;;;25.42;28.36
54870;BME280;40756;-37.950;145.008;2022-12-10T08:29:13;100764.66;;;25.55;27.86
54870;BME280;40756;-37.950;145.008;2022-12-10T08:31:42;100761.69;;;25.48;27.62
54870;BME280;40756;-37.950;145.008;2022-12-10T08:34:15;100761.60;;;25.25;28.13
54870;BME280;40756;-37.950;145.008;2022-12-10T08:36:45;100762.87;;;25.26;28.18
54870;BME280;40756;-37.950;145.008;2022-12-10T08:39:15;100764.48;;;25.50;27.69
54870;BME280;40756;-37.950;145.008;2022-12-10T08:41:46;100766.43;;;25.15;28.00
54870;BME280;40756;-37.950;145.008;2022-12-10T08:44:15;100764.39;;;25.36;28.57
54870;BME280;40756;-37.950;145.008;2022-12-10T08:46:44;100764.54;;;24.63;28.82
54870;BME280;40756;-37.950;145.008;2022-12-10T08:49:13;100762.87;;;25.14;28.56
54870;BME280;40756;-37.950;145.008;2022-12-10T08:51:43;100761.91;;;25.04;28.88
54870;BME280;40756;-37.950;145.008;2022-12-10T08:54:12;100764.61;;;24.54;29.22
54870;BME280;40756;-37.950;145.008;2022-12-10T08:56:42;100766.19;;;24.87;28.85
54870;BME280;40756;-37.950;145.008;2022-12-10T08:59:11;100771.34;;;24.82;29.13
54870;BME280;40756;-37.950;145.008;2022-12-10T09:01:41;100773.71;;;24.64;28.94
54870;BME280;40756;-37.950;145.008;2022-12-10T09:04:10;100774.45;;;24.33;29.14
54870;BME280;40756;-37.950;145.008;2022-12-10T09:06:40;100772.61;;;24.67;29.01
54870;BME280;40756;-37.950;145.008;2022-12-10T09:09:09;100779.05;;;24.40;29.40
54870;BME280;40756;-37.950;145.008;2022-12-10T09:11:38;100781.58;;;24.23;29.62
54870;BME280;40756;-37.950;145.008;2022-12-10T09:14:08;100781.88;;;24.37;29.88
54870;BME280;40756;-37.950;145.008;2022-12-10T09:16:38;100784.64;;;24.52;29.82
54870;BME280;40756;-37.950;145.008;2022-12-10T09:19:07;100782.41;;;24.59;29.91
54870;BME280;40756;-37.950;145.008;2022-12-10T09:21:37;100789.95;;;24.12;30.09
54870;BME280;40756;-37.950;145.008;2022-12-10T09:24:08;100794.68;;;24.52;30.06
54870;BME280;40756;-37.950;145.008;2022-12-10T09:26:37;100797.71;;;24.28;30.50
54870;BME280;40756;-37.950;145.008;2022-12-10T09:29:07;100799.74;;;24.03;30.63
54870;BME280;40756;-37.950;145.008;2022-12-10T09:31:36;100799.68;;;23.92;30.89
54870;BME280;40756;-37.950;145.008;2022-12-10T09:34:06;100803.51;;;23.78;31.73
54870;BME280;40756;-37.950;145.008;2022-12-10T09:36:35;100800.07;;;23.62;31.24
54870;BME280;40756;-37.950;145.008;2022-12-10T09:39:05;100800.98;;;23.82;31.57
54870;BME280;40756;-37.950;145.008;2022-12-10T09:42:15;100803.06;;;23.70;31.80
54870;BME280;40756;-37.950;145.008;2022-12-10T09:44:56;100803.91;;;23.61;32.04
54870;BME280;40756;-37.950;145.008;2022-12-10T09:47:35;100803.07;;;23.61;32.12
54870;BME280;40756;-37.950;145.008;2022-12-10T09:50:16;100804.23;;;23.50;32.36
54870;BME280;40756;-37.950;145.008;2022-12-10T09:52:48;100800.84;;;23.30;32.65
54870;BME280;40756;-37.950;145.008;2022-12-10T09:55:20;100801.16;;;23.28;32.81
54870;BME280;40756;-37.950;145.008;2022-12-10T09:57:52;100801.97;;;23.23;32.89
54870;BME280;40756;-37.950;145.008;2022-12-10T10:00:25;100800.47;;;23.09;33.22
54870;BME280;40756;-37.950;145.008;2022-12-10T10:02:58;100802.46;;;23.30;33.12
54870;BME280;40756;-37.950;145.008;2022-12-10T10:05:30;100802.11;;;23.34;32.86
54870;BME280;40756;-37.950;145.008;2022-12-10T10:08:02;100802.78;;;23.56;32.77
54870;BME280;40756;-37.950;145.008;2022-12-10T10:10:34;100801.24;;;23.52;32.49
54870;BME280;40756;-37.950;145.008;2022-12-10T10:13:18;100802.06;;;23.16;32.14
54870;BME280;40756;-37.950;145.008;2022-12-10T10:15:52;100801.97;;;23.69;31.90
54870;BME280;40756;-37.950;145.008;2022-12-10T10:18:32;100801.63;;;23.06;32.01
54870;BME280;40756;-37.950;145.008;2022-12-10T10:21:05;100799.05;;;23.29;31.68
54870;BME280;40756;-37.950;145.008;2022-12-10T10:23:36;100794.79;;;23.28;31.37
54870;BME280;40756;-37.950;145.008;2022-12-10T10:26:06;100789.53;;;22.88;31.78
54870;BME280;40756;-37.950;145.008;2022-12-10T10:28:35;100792.76;;;23.10;31.45
54870;BME280;40756;-37.950;145.008;2022-12-10T10:31:18;100791.28;;;23.23;31.49
54870;BME280;40756;-37.950;145.008;2022-12-10T10:33:53;100787.99;;;23.08;31.49
54870;BME280;40756;-37.950;145.008;2022-12-10T10:36:27;100783.50;;;22.65;32.01
54870;BME280;40756;-37.950;145.008;2022-12-10T10:38:56;100782.55;;;23.31;31.48
54870;BME280;40756;-37.950;145.008;2022-12-10T10:41:26;100775.29;;;23.07;31.77
54870;BME280;40756;-37.950;145.008;2022-12-10T10:44:00;100764.72;;;22.86;32.19
54870;BME280;40756;-37.950;145.008;2022-12-10T10:46:31;100770.63;;;23.09;31.78
54870;BME280;40756;-37.950;145.008;2022-12-10T10:49:19;100771.19;;;22.74;32.04
54870;BME280;40756;-37.950;145.008;2022-12-10T10:51:51;100767.42;;;22.95;32.08
54870;BME280;40756;-37.950;145.008;2022-12-10T10:54:41;100773.08;;;22.65;32.17
54870;BME280;40756;-37.950;145.008;2022-12-10T10:57:14;100783.26;;;22.92;32.20
54870;BME280;40756;-37.950;145.008;2022-12-10T10:59:46;100786.85;;;22.48;32.20
54870;BME280;40756;-37.950;145.008;2022-12-10T11:02:21;100789.61;;;22.60;32.22
54870;BME280;40756;-37.950;145.008;2022-12-10T11:04:53;100793.13;;;22.47;32.45
54870;BME280;40756;-37.950;145.008;2022-12-10T11:07:32;100792.15;;;22.49;32.74
54870;BME280;40756;-37.950;145.008;2022-12-10T11:10:14;100788.14;;;22.47;32.85
54870;BME280;40756;-37.950;145.008;2022-12-10T11:12:46;100789.63;;;22.44;32.82
54870;BME280;40756;-37.950;145.008;2022-12-10T11:15:39;100792.10;;;22.24;33.07
54870;BME280;40756;-37.950;145.008;2022-12-10T11:18:26;100790.25;;;22.39;33.18
54870;BME280;40756;-37.950;145.008;2022-12-10T11:21:02;100789.40;;;22.37;32.87
54870;BME280;40756;-37.950;145.008;2022-12-10T11:23:37;100784.97;;;22.11;33.26
54870;BME280;40756;-37.950;145.008;2022-12-10T11:26:26;100787.61;;;22.12;33.02
54870;BME280;40756;-37.950;145.008;2022-12-10T11:29:08;100792.87;;;22.05;33.40
54870;BME280;40756;-37.950;145.008;2022-12-10T11:31:55;100799.02;;;22.01;33.62
54870;BME280;40756;-37.950;145.008;2022-12-10T11:34:38;100794.06;;;22.06;33.51
54870;BME280;40756;-37.950;145.008;2022-12-10T11:37:18;100793.03;;;22.01;33.46
54870;BME280;40756;-37.950;145.008;2022-12-10T11:40:06;100787.54;;;21.97;33.49
54870;BME280;40756;-37.950;145.008;2022-12-10T11:42:47;100782.43;;;22.04;33.32
54870;BME280;40756;-37.950;145.008;2022-12-10T11:45:24;100779.75;;;22.02;33.46
54870;BME280;40756;-37.950;145.008;2022-12-10T11:48:06;100776.53;;;22.12;33.43
54870;BME280;40756;-37.950;145.008;2022-12-10T11:50:44;100773.11;;;21.85;33.51
54870;BME280;40756;-37.950;145.008;2022-12-10T11:53:34;100770.73;;;21.72;33.67
54870;BME280;40756;-37.950;145.008;2022-12-10T11:56:17;100773.65;;;22.08;33.91
54870;BME280;40756;-37.950;145.008;2022-12-10T11:59:02;100771.81;;;21.68;34.04
54870;BME280;40756;-37.950;145.008;2022-12-10T12:01:50;100768.45;;;21.41;34.33
54870;BME280;40756;-37.950;145.008;2022-12-10T12:04:32;100768.70;;;21.72;34.36
54870;BME280;40756;-37.950;145.008;2022-12-10T12:07:21;100773.17;;;21.71;34.68
54870;BME280;40756;-37.950;145.008;2022-12-10T12:10:10;100775.69;;;21.55;34.51
54870;BME280;40756;-37.950;145.008;2022-12-10T12:12:53;100774.48;;;21.18;34.91
54870;BME280;40756;-37.950;145.008;2022-12-10T12:15:29;100772.50;;;21.21;34.79
54870;BME280;40756;-37.950;145.008;2022-12-10T12:18:05;100773.46;;;21.26;34.64
54870;BME280;40756;-37.950;145.008;2022-12-10T12:20:38;100774.71;;;21.70;34.78
54870;BME280;40756;-37.950;145.008;2022-12-10T12:23:17;100767.85;;;21.14;35.19
54870;BME280;40756;-37.950;145.008;2022-12-10T12:25:52;100760.48;;;21.45;35.19
54870;BME280;40756;-37.950;145.008;2022-12-10T12:28:26;100758.20;;;21.57;35.41
54870;BME280;40756;-37.950;145.008;2022-12-10T12:31:04;100754.06;;;21.23;35.41
54870;BME280;40756;-37.950;145.008;2022-12-10T12:33:41;100749.75;;;21.45;35.56
54870;BME280;40756;-37.950;145.008;2022-12-10T12:36:16;100745.34;;;21.19;35.60
54870;BME280;40756;-37.950;145.008;2022-12-10T12:38:53;100741.56;;;21.21;35.79
54870;BME280;40756;-37.950;145.008;2022-12-10T12:41:30;100738.92;;;21.13;35.93
54870;BME280;40756;-37.950;145.008;2022-12-10T12:44:09;100738.87;;;20.90;36.11
54870;BME280;40756;-37.950;145.008;2022-12-10T12:46:44;100735.68;;;21.06;36.26
54870;BME280;40756;-37.950;145.008;2022-12-10T12:49:22;100737.45;;;21.04;36.46